KCFV/CFV METAR and TAF weather

Enter ICAO airport designator
Station Type Date Time Source
KCFV METAR 2018/04/21 20:52 UTC NOAA

KCFV 212052Z AUTO 35007KT 9SM -RA OVC055 12/10 A3008 RMK AO2 SLP187 P0002 60011 T01170100 55005


Station Type Date Time Source
KCFV Decoded METAR 2018/04/21 20:52 UTC NOAA

COFFEYVILLE MUNICIPAL AIRPORT , KS, United States (KCFV) 37-05N 95-34W 225M
Apr 21, 2018 - 04:52 PM EDT / 2018.04.21 2052 UTC
Wind: from the N (350 degrees) at 8 MPH (7 KT):0
Visibility: 9 mile(s):0
Sky conditions: overcast
Weather: light rain
Precipitation last hour: 0.02 inches
Temperature: 53.1 F (11.7 C)
Dew Point: 50.0 F (10.0 C)
Relative Humidity: 89%
Pressure (altimeter): 30.08 in. Hg (1018 hPa)
Pressure tendency: 0.01 inches (0.5 hPa) lower than three hours ago
ob: KCFV 212052Z AUTO 35007KT 9SM -RA OVC055 12/10 A3008 RMK AO2 SLP187 P0002 60011 T01170100 55005
cycle: 21

Station Type Date Time Source
KCFV TAF UTC NOAA

Error!


Example: see airport list